sensor_id;sensor_type;location;lat;lon;timestamp;P1;durP1;ratioP1;P2;durP2;ratioP2
53835;SDS011;39737;43.334;21.936;2022-11-15T00:01:17;1.85;;;1.75;;
53835;SDS011;39737;43.334;21.936;2022-11-15T00:04:29;3.05;;;1.95;;
53835;SDS011;39737;43.334;21.936;2022-11-15T00:07:34;10.82;;;5.93;;
53835;SDS011;39737;43.334;21.936;2022-11-15T00:10:59;1.10;;;1.02;;
53835;SDS011;39737;43.334;21.936;2022-11-15T00:14:04;1.45;;;1.35;;
53835;SDS011;39737;43.334;21.936;2022-11-15T00:17:08;1.75;;;1.65;;
53835;SDS011;39737;43.334;21.936;2022-11-15T00:20:13;1.20;;;1.02;;
53835;SDS011;39737;43.334;21.936;2022-11-15T00:23:18;18.20;;;6.80;;
53835;SDS011;39737;43.334;21.936;2022-11-15T00:26:23;3.88;;;1.80;;
53835;SDS011;39737;43.334;21.936;2022-11-15T00:29:27;2.00;;;1.88;;
53835;SDS011;39737;43.334;21.936;2022-11-15T00:32:32;2.75;;;2.30;;
53835;SDS011;39737;43.334;21.936;2022-11-15T00:35:37;7.55;;;3.08;;
53835;SDS011;39737;43.334;21.936;2022-11-15T00:38:41;1.33;;;1.23;;
53835;SDS011;39737;43.334;21.936;2022-11-15T00:41:46;10.52;;;4.10;;
53835;SDS011;39737;43.334;21.936;2022-11-15T00:44:52;1.05;;;0.77;;
53835;SDS011;39737;43.334;21.936;2022-11-15T00:47:56;1.23;;;1.23;;
53835;SDS011;39737;43.334;21.936;2022-11-15T00:51:01;4.75;;;1.67;;
53835;SDS011;39737;43.334;21.936;2022-11-15T00:54:05;9.73;;;3.00;;
53835;SDS011;39737;43.334;21.936;2022-11-15T00:57:10;3.67;;;1.45;;
53835;SDS011;39737;43.334;21.936;2022-11-15T01:00:16;1.30;;;1.20;;
53835;SDS011;39737;43.334;21.936;2022-11-15T01:03:21;2.47;;;2.28;;
53835;SDS011;39737;43.334;21.936;2022-11-15T01:06:26;1.38;;;1.05;;
53835;SDS011;39737;43.334;21.936;2022-11-15T01:09:31;3.42;;;2.47;;
53835;SDS011;39737;43.334;21.936;2022-11-15T01:12:35;6.65;;;2.25;;
53835;SDS011;39737;43.334;21.936;2022-11-15T01:15:40;1.05;;;1.02;;
53835;SDS011;39737;43.334;21.936;2022-11-15T01:18:45;3.50;;;2.70;;
53835;SDS011;39737;43.334;21.936;2022-11-15T01:21:50;2.58;;;2.30;;
53835;SDS011;39737;43.334;21.936;2022-11-15T01:24:55;2.28;;;2.05;;
53835;SDS011;39737;43.334;21.936;2022-11-15T01:28:00;2.55;;;1.77;;
53835;SDS011;39737;43.334;21.936;2022-11-15T01:31:05;6.57;;;3.70;;
53835;SDS011;39737;43.334;21.936;2022-11-15T01:34:10;4.18;;;2.90;;
53835;SDS011;39737;43.334;21.936;2022-11-15T01:37:15;2.35;;;1.45;;
53835;SDS011;39737;43.334;21.936;2022-11-15T01:40:20;3.47;;;2.67;;
53835;SDS011;39737;43.334;21.936;2022-11-15T01:43:29;4.70;;;1.98;;
53835;SDS011;39737;43.334;21.936;2022-11-15T01:46:34;2.65;;;2.17;;
53835;SDS011;39737;43.334;21.936;2022-11-15T01:49:40;5.75;;;3.38;;
53835;SDS011;39737;43.334;21.936;2022-11-15T01:52:47;9.65;;;1.75;;
53835;SDS011;39737;43.334;21.936;2022-11-15T01:55:52;1.80;;;1.30;;
53835;SDS011;39737;43.334;21.936;2022-11-15T01:58:58;2.45;;;2.25;;
53835;SDS011;39737;43.334;21.936;2022-11-15T02:02:03;6.72;;;2.08;;
53835;SDS011;39737;43.334;21.936;2022-11-15T02:05:08;3.90;;;2.47;;
53835;SDS011;39737;43.334;21.936;2022-11-15T02:08:12;9.77;;;5.55;;
53835;SDS011;39737;43.334;21.936;2022-11-15T02:11:24;2.25;;;2.15;;
53835;SDS011;39737;43.334;21.936;2022-11-15T02:14:29;2.78;;;2.58;;
53835;SDS011;39737;43.334;21.936;2022-11-15T02:20:43;4.72;;;2.90;;
53835;SDS011;39737;43.334;21.936;2022-11-15T02:23:58;4.03;;;2.60;;
53835;SDS011;39737;43.334;21.936;2022-11-15T02:30:18;1.67;;;1.58;;
53835;SDS011;39737;43.334;21.936;2022-11-15T02:43:29;3.75;;;1.88;;
53835;SDS011;39737;43.334;21.936;2022-11-15T02:47:12;1.88;;;1.70;;
53835;SDS011;39737;43.334;21.936;2022-11-15T02:50:18;5.45;;;1.70;;
53835;SDS011;39737;43.334;21.936;2022-11-15T02:53:24;0.98;;;0.95;;
53835;SDS011;39737;43.334;21.936;2022-11-15T02:56:29;11.77;;;3.50;;
53835;SDS011;39737;43.334;21.936;2022-11-15T03:03:24;1.70;;;1.40;;
53835;SDS011;39737;43.334;21.936;2022-11-15T03:13:21;1.35;;;1.23;;
53835;SDS011;39737;43.334;21.936;2022-11-15T03:19:40;3.20;;;1.85;;
53835;SDS011;39737;43.334;21.936;2022-11-15T03:22:50;1.55;;;1.20;;
53835;SDS011;39737;43.334;21.936;2022-11-15T03:25:55;2.65;;;2.45;;
53835;SDS011;39737;43.334;21.936;2022-11-15T03:29:04;1.88;;;1.73;;
53835;SDS011;39737;43.334;21.936;2022-11-15T03:32:12;1.88;;;1.65;;
53835;SDS011;39737;43.334;21.936;2022-11-15T03:35:18;3.97;;;3.15;;
53835;SDS011;39737;43.334;21.936;2022-11-15T03:38:25;1.45;;;1.23;;
53835;SDS011;39737;43.334;21.936;2022-11-15T03:41:39;0.98;;;0.98;;
53835;SDS011;39737;43.334;21.936;2022-11-15T03:51:03;2.42;;;2.15;;
53835;SDS011;39737;43.334;21.936;2022-11-15T03:54:08;1.50;;;1.08;;
53835;SDS011;39737;43.334;21.936;2022-11-15T03:57:13;2.17;;;1.60;;
53835;SDS011;39737;43.334;21.936;2022-11-15T04:00:18;3.30;;;1.55;;
53835;SDS011;39737;43.334;21.936;2022-11-15T04:03:23;3.33;;;1.63;;
53835;SDS011;39737;43.334;21.936;2022-11-15T04:06:28;2.53;;;2.33;;
53835;SDS011;39737;43.334;21.936;2022-11-15T04:09:33;1.63;;;1.48;;
53835;SDS011;39737;43.334;21.936;2022-11-15T04:12:41;3.67;;;2.53;;
53835;SDS011;39737;43.334;21.936;2022-11-15T04:15:47;2.65;;;1.88;;
53835;SDS011;39737;43.334;21.936;2022-11-15T04:18:51;6.25;;;2.42;;
53835;SDS011;39737;43.334;21.936;2022-11-15T04:22:16;6.50;;;2.72;;
53835;SDS011;39737;43.334;21.936;2022-11-15T04:25:40;2.08;;;1.25;;
53835;SDS011;39737;43.334;21.936;2022-11-15T04:28:44;4.57;;;2.85;;
53835;SDS011;39737;43.334;21.936;2022-11-15T04:32:08;4.55;;;3.10;;
53835;SDS011;39737;43.334;21.936;2022-11-15T04:35:12;4.25;;;3.22;;
53835;SDS011;39737;43.334;21.936;2022-11-15T04:38:17;6.32;;;3.00;;
53835;SDS011;39737;43.334;21.936;2022-11-15T04:41:22;2.25;;;2.00;;
53835;SDS011;39737;43.334;21.936;2022-11-15T04:44:26;2.30;;;2.10;;
53835;SDS011;39737;43.334;21.936;2022-11-15T04:47:31;4.20;;;1.40;;
53835;SDS011;39737;43.334;21.936;2022-11-15T04:50:35;3.40;;;2.60;;
53835;SDS011;39737;43.334;21.936;2022-11-15T04:53:40;1.80;;;1.70;;
53835;SDS011;39737;43.334;21.936;2022-11-15T04:56:44;1.52;;;1.42;;
53835;SDS011;39737;43.334;21.936;2022-11-15T04:59:49;6.50;;;4.10;;
53835;SDS011;39737;43.334;21.936;2022-11-15T05:02:54;2.33;;;1.02;;
53835;SDS011;39737;43.334;21.936;2022-11-15T05:06:18;1.25;;;1.20;;
53835;SDS011;39737;43.334;21.936;2022-11-15T05:09:23;2.95;;;2.00;;
53835;SDS011;39737;43.334;21.936;2022-11-15T05:12:27;2.10;;;1.23;;
53835;SDS011;39737;43.334;21.936;2022-11-15T05:15:32;1.85;;;1.75;;
53835;SDS011;39737;43.334;21.936;2022-11-15T05:18:37;1.50;;;1.35;;
53835;SDS011;39737;43.334;21.936;2022-11-15T05:21:45;5.53;;;1.92;;
53835;SDS011;39737;43.334;21.936;2022-11-15T05:24:49;22.35;;;2.90;;
53835;SDS011;39737;43.334;21.936;2022-11-15T05:27:54;3.95;;;2.05;;
53835;SDS011;39737;43.334;21.936;2022-11-15T05:31:02;7.68;;;2.88;;
53835;SDS011;39737;43.334;21.936;2022-11-15T05:34:07;5.90;;;2.88;;
53835;SDS011;39737;43.334;21.936;2022-11-15T05:37:12;17.13;;;8.90;;
53835;SDS011;39737;43.334;21.936;2022-11-15T05:40:17;19.05;;;11.15;;
53835;SDS011;39737;43.334;21.936;2022-11-15T05:43:21;10.45;;;3.95;;
53835;SDS011;39737;43.334;21.936;2022-11-15T05:46:26;14.10;;;8.02;;
53835;SDS011;39737;43.334;21.936;2022-11-15T05:49:31;6.55;;;4.43;;
53835;SDS011;39737;43.334;21.936;2022-11-15T05:52:38;5.10;;;4.32;;
53835;SDS011;39737;43.334;21.936;2022-11-15T05:55:43;12.50;;;4.82;;
53835;SDS011;39737;43.334;21.936;2022-11-15T05:58:47;4.68;;;3.25;;
53835;SDS011;39737;43.334;21.936;2022-11-15T06:01:52;6.22;;;5.45;;
53835;SDS011;39737;43.334;21.936;2022-11-15T06:04:57;9.15;;;4.40;;
53835;SDS011;39737;43.334;21.936;2022-11-15T06:08:02;33.83;;;15.05;;
53835;SDS011;39737;43.334;21.936;2022-11-15T06:11:07;13.77;;;6.05;;
53835;SDS011;39737;43.334;21.936;2022-11-15T06:14:12;10.27;;;4.15;;
53835;SDS011;39737;43.334;21.936;2022-11-15T06:17:16;9.02;;;4.82;;
53835;SDS011;39737;43.334;21.936;2022-11-15T06:20:21;10.25;;;6.32;;
53835;SDS011;39737;43.334;21.936;2022-11-15T06:23:26;7.13;;;5.30;;
53835;SDS011;39737;43.334;21.936;2022-11-15T06:26:34;5.82;;;3.92;;
53835;SDS011;39737;43.334;21.936;2022-11-15T06:29:45;26.75;;;15.10;;
53835;SDS011;39737;43.334;21.936;2022-11-15T06:32:49;5.32;;;4.18;;
53835;SDS011;39737;43.334;21.936;2022-11-15T06:35:54;21.13;;;9.45;;
53835;SDS011;39737;43.334;21.936;2022-11-15T06:39:00;46.30;;;24.77;;
53835;SDS011;39737;43.334;21.936;2022-11-15T06:42:05;9.30;;;5.65;;
53835;SDS011;39737;43.334;21.936;2022-11-15T06:45:09;22.40;;;12.60;;
53835;SDS011;39737;43.334;21.936;2022-11-15T06:48:15;19.20;;;8.85;;
53835;SDS011;39737;43.334;21.936;2022-11-15T06:51:20;6.85;;;4.85;;
53835;SDS011;39737;43.334;21.936;2022-11-15T06:54:24;18.10;;;7.25;;
53835;SDS011;39737;43.334;21.936;2022-11-15T06:57:29;8.15;;;5.82;;
53835;SDS011;39737;43.334;21.936;2022-11-15T07:00:33;22.27;;;9.60;;
53835;SDS011;39737;43.334;21.936;2022-11-15T07:03:39;65.40;;;29.92;;
53835;SDS011;39737;43.334;21.936;2022-11-15T07:06:45;49.47;;;24.23;;
53835;SDS011;39737;43.334;21.936;2022-11-15T07:09:50;56.28;;;27.20;;
53835;SDS011;39737;43.334;21.936;2022-11-15T07:12:55;45.33;;;20.98;;
53835;SDS011;39737;43.334;21.936;2022-11-15T07:16:04;40.40;;;21.27;;
53835;SDS011;39737;43.334;21.936;2022-11-15T07:19:09;35.33;;;18.35;;
53835;SDS011;39737;43.334;21.936;2022-11-15T07:22:14;52.67;;;24.15;;
53835;SDS011;39737;43.334;21.936;2022-11-15T07:25:19;48.33;;;25.90;;
53835;SDS011;39737;43.334;21.936;2022-11-15T07:28:24;71.80;;;30.00;;
53835;SDS011;39737;43.334;21.936;2022-11-15T07:31:28;73.03;;;28.92;;
53835;SDS011;39737;43.334;21.936;2022-11-15T07:34:33;56.00;;;25.77;;
53835;SDS011;39737;43.334;21.936;2022-11-15T07:37:38;67.93;;;29.65;;
53835;SDS011;39737;43.334;21.936;2022-11-15T07:40:42;70.00;;;33.63;;
53835;SDS011;39737;43.334;21.936;2022-11-15T07:43:50;59.88;;;30.08;;
53835;SDS011;39737;43.334;21.936;2022-11-15T07:46:55;62.03;;;32.60;;
53835;SDS011;39737;43.334;21.936;2022-11-15T07:50:00;51.08;;;26.83;;
53835;SDS011;39737;43.334;21.936;2022-11-15T07:53:04;52.78;;;24.90;;
53835;SDS011;39737;43.334;21.936;2022-11-15T07:56:09;66.05;;;31.83;;
53835;SDS011;39737;43.334;21.936;2022-11-15T07:59:14;51.10;;;26.42;;
53835;SDS011;39737;43.334;21.936;2022-11-15T08:02:18;45.70;;;25.15;;
53835;SDS011;39737;43.334;21.936;2022-11-15T08:05:23;44.28;;;25.60;;
53835;SDS011;39737;43.334;21.936;2022-11-15T08:08:27;41.42;;;22.45;;
53835;SDS011;39737;43.334;21.936;2022-11-15T08:11:32;51.42;;;22.38;;
53835;SDS011;39737;43.334;21.936;2022-11-15T08:14:37;38.47;;;22.17;;
53835;SDS011;39737;43.334;21.936;2022-11-15T08:17:41;43.10;;;21.98;;
53835;SDS011;39737;43.334;21.936;2022-11-15T08:20:46;44.35;;;21.90;;
53835;SDS011;39737;43.334;21.936;2022-11-15T08:23:50;42.38;;;22.02;;
53835;SDS011;39737;43.334;21.936;2022-11-15T08:26:56;42.28;;;22.50;;
53835;SDS011;39737;43.334;21.936;2022-11-15T08:30:01;75.40;;;36.35;;
53835;SDS011;39737;43.334;21.936;2022-11-15T08:33:09;47.90;;;26.25;;
53835;SDS011;39737;43.334;21.936;2022-11-15T08:36:15;43.92;;;22.98;;
53835;SDS011;39737;43.334;21.936;2022-11-15T08:39:20;41.13;;;21.60;;
53835;SDS011;39737;43.334;21.936;2022-11-15T08:42:25;50.80;;;26.02;;
53835;SDS011;39737;43.334;21.936;2022-11-15T08:45:29;47.72;;;23.30;;
53835;SDS011;39737;43.334;21.936;2022-11-15T08:48:34;57.17;;;29.85;;
53835;SDS011;39737;43.334;21.936;2022-11-15T08:51:41;49.45;;;26.40;;
53835;SDS011;39737;43.334;21.936;2022-11-15T08:54:46;49.13;;;26.20;;
53835;SDS011;39737;43.334;21.936;2022-11-15T08:57:51;51.28;;;27.20;;
53835;SDS011;39737;43.334;21.936;2022-11-15T09:00:56;44.42;;;23.35;;
53835;SDS011;39737;43.334;21.936;2022-11-15T09:04:02;45.90;;;22.15;;
53835;SDS011;39737;43.334;21.936;2022-11-15T09:07:11;37.05;;;20.67;;
53835;SDS011;39737;43.334;21.936;2022-11-15T09:10:17;43.97;;;21.88;;
53835;SDS011;39737;43.334;21.936;2022-11-15T09:13:22;47.97;;;21.55;;
53835;SDS011;39737;43.334;21.936;2022-11-15T09:16:27;44.30;;;21.77;;
53835;SDS011;39737;43.334;21.936;2022-11-15T09:19:35;29.27;;;12.38;;
53835;SDS011;39737;43.334;21.936;2022-11-15T09:22:39;35.83;;;18.95;;
53835;SDS011;39737;43.334;21.936;2022-11-15T09:25:44;35.05;;;19.60;;
53835;SDS011;39737;43.334;21.936;2022-11-15T09:28:49;38.78;;;19.02;;
53835;SDS011;39737;43.334;21.936;2022-11-15T09:32:11;40.63;;;20.55;;
53835;SDS011;39737;43.334;21.936;2022-11-15T09:35:18;35.58;;;19.13;;
53835;SDS011;39737;43.334;21.936;2022-11-15T09:38:23;37.20;;;19.10;;
53835;SDS011;39737;43.334;21.936;2022-11-15T09:41:31;44.30;;;20.80;;
53835;SDS011;39737;43.334;21.936;2022-11-15T09:44:54;33.70;;;16.88;;
53835;SDS011;39737;43.334;21.936;2022-11-15T09:48:13;26.63;;;16.30;;
53835;SDS011;39737;43.334;21.936;2022-11-15T09:51:35;29.27;;;15.90;;
53835;SDS011;39737;43.334;21.936;2022-11-15T09:54:32;31.40;;;15.63;;
53835;SDS011;39737;43.334;21.936;2022-11-15T10:01:33;32.33;;;16.17;;
53835;SDS011;39737;43.334;21.936;2022-11-15T10:04:27;34.85;;;16.92;;
53835;SDS011;39737;43.334;21.936;2022-11-15T10:10:15;48.42;;;21.27;;
53835;SDS011;39737;43.334;21.936;2022-11-15T10:22:32;23.20;;;12.85;;
53835;SDS011;39737;43.334;21.936;2022-11-15T10:25:31;33.53;;;16.65;;
53835;SDS011;39737;43.334;21.936;2022-11-15T10:28:22;30.48;;;14.65;;
53835;SDS011;39737;43.334;21.936;2022-11-15T10:31:22;29.98;;;15.43;;
53835;SDS011;39737;43.334;21.936;2022-11-15T10:34:35;33.00;;;15.57;;
53835;SDS011;39737;43.334;21.936;2022-11-15T10:37:40;29.90;;;15.73;;
53835;SDS011;39737;43.334;21.936;2022-11-15T10:40:26;25.60;;;15.00;;
53835;SDS011;39737;43.334;21.936;2022-11-15T10:43:30;30.25;;;14.38;;
53835;SDS011;39737;43.334;21.936;2022-11-15T10:46:19;24.30;;;12.38;;
53835;SDS011;39737;43.334;21.936;2022-11-15T10:49:26;24.63;;;12.93;;
53835;SDS011;39737;43.334;21.936;2022-11-15T10:52:16;30.98;;;15.05;;
53835;SDS011;39737;43.334;21.936;2022-11-15T10:55:18;29.05;;;15.32;;
53835;SDS011;39737;43.334;21.936;2022-11-15T10:58:19;28.15;;;14.23;;
53835;SDS011;39737;43.334;21.936;2022-11-15T11:01:13;31.40;;;15.65;;
53835;SDS011;39737;43.334;21.936;2022-11-15T11:04:05;24.58;;;13.27;;
53835;SDS011;39737;43.334;21.936;2022-11-15T11:07:00;25.67;;;14.20;;
53835;SDS011;39737;43.334;21.936;2022-11-15T11:09:48;26.73;;;14.30;;
53835;SDS011;39737;43.334;21.936;2022-11-15T11:12:42;26.25;;;13.32;;
53835;SDS011;39737;43.334;21.936;2022-11-15T11:15:28;26.67;;;12.30;;
53835;SDS011;39737;43.334;21.936;2022-11-15T11:18:19;28.33;;;13.85;;
53835;SDS011;39737;43.334;21.936;2022-11-15T11:21:09;32.25;;;17.75;;
53835;SDS011;39737;43.334;21.936;2022-11-15T11:24:19;32.97;;;17.58;;
53835;SDS011;39737;43.334;21.936;2022-11-15T11:27:13;39.30;;;20.45;;
53835;SDS011;39737;43.334;21.936;2022-11-15T11:30:09;40.92;;;20.98;;
53835;SDS011;39737;43.334;21.936;2022-11-15T11:36:28;45.45;;;19.58;;
53835;SDS011;39737;43.334;21.936;2022-11-15T11:39:41;45.03;;;21.88;;
53835;SDS011;39737;43.334;21.936;2022-11-15T11:54:25;48.83;;;21.58;;
53835;SDS011;39737;43.334;21.936;2022-11-15T11:57:22;43.58;;;20.10;;
53835;SDS011;39737;43.334;21.936;2022-11-15T12:00:20;92.30;;;31.00;;
53835;SDS011;39737;43.334;21.936;2022-11-15T12:06:01;47.65;;;18.63;;
53835;SDS011;39737;43.334;21.936;2022-11-15T12:09:18;35.67;;;17.25;;
53835;SDS011;39737;43.334;21.936;2022-11-15T12:18:01;42.50;;;20.88;;
53835;SDS011;39737;43.334;21.936;2022-11-15T12:20:56;41.38;;;21.80;;
53835;SDS011;39737;43.334;21.936;2022-11-15T12:23:55;37.55;;;20.05;;
53835;SDS011;39737;43.334;21.936;2022-11-15T12:27:36;40.97;;;19.92;;
53835;SDS011;39737;43.334;21.936;2022-11-15T12:30:14;37.03;;;20.17;;
53835;SDS011;39737;43.334;21.936;2022-11-15T12:33:01;55.10;;;23.40;;
53835;SDS011;39737;43.334;21.936;2022-11-15T12:35:56;46.50;;;21.30;;
53835;SDS011;39737;43.334;21.936;2022-11-15T12:38:51;43.28;;;22.25;;
53835;SDS011;39737;43.334;21.936;2022-11-15T12:41:40;59.45;;;25.50;;
53835;SDS011;39737;43.334;21.936;2022-11-15T12:47:22;60.72;;;29.20;;
53835;SDS011;39737;43.334;21.936;2022-11-15T12:50:12;50.00;;;25.35;;
53835;SDS011;39737;43.334;21.936;2022-11-15T12:58:57;62.38;;;30.02;;
53835;SDS011;39737;43.334;21.936;2022-11-15T13:04:38;46.60;;;22.52;;
53835;SDS011;39737;43.334;21.936;2022-11-15T13:13:12;58.25;;;25.27;;
53835;SDS011;39737;43.334;21.936;2022-11-15T13:16:19;86.43;;;34.50;;
53835;SDS011;39737;43.334;21.936;2022-11-15T13:19:05;66.25;;;29.92;;
53835;SDS011;39737;43.334;21.936;2022-11-15T13:21:55;61.20;;;27.95;;
53835;SDS011;39737;43.334;21.936;2022-11-15T13:25:00;63.38;;;28.23;;
53835;SDS011;39737;43.334;21.936;2022-11-15T13:27:47;64.45;;;29.13;;
53835;SDS011;39737;43.334;21.936;2022-11-15T13:30:34;59.63;;;27.77;;
53835;SDS011;39737;43.334;21.936;2022-11-15T13:33:36;65.72;;;29.05;;
53835;SDS011;39737;43.334;21.936;2022-11-15T13:36:24;84.93;;;34.28;;
53835;SDS011;39737;43.334;21.936;2022-11-15T13:39:32;87.95;;;33.67;;
53835;SDS011;39737;43.334;21.936;2022-11-15T13:42:20;105.82;;;39.58;;
53835;SDS011;39737;43.334;21.936;2022-11-15T13:45:12;67.07;;;30.25;;
53835;SDS011;39737;43.334;21.936;2022-11-15T13:47:58;66.85;;;33.67;;
53835;SDS011;39737;43.334;21.936;2022-11-15T13:50:47;85.03;;;36.55;;
53835;SDS011;39737;43.334;21.936;2022-11-15T13:53:38;85.18;;;40.00;;
53835;SDS011;39737;43.334;21.936;2022-11-15T13:56:30;77.38;;;37.03;;
53835;SDS011;39737;43.334;21.936;2022-11-15T13:59:24;71.55;;;33.53;;
53835;SDS011;39737;43.334;21.936;2022-11-15T14:02:16;82.18;;;37.50;;
53835;SDS011;39737;43.334;21.936;2022-11-15T14:07:54;91.57;;;39.85;;
53835;SDS011;39737;43.334;21.936;2022-11-15T14:10:40;86.07;;;38.47;;
53835;SDS011;39737;43.334;21.936;2022-11-15T14:13:27;91.07;;;42.20;;
53835;SDS011;39737;43.334;21.936;2022-11-15T14:16:20;104.60;;;45.35;;
53835;SDS011;39737;43.334;21.936;2022-11-15T14:22:16;107.22;;;46.97;;
53835;SDS011;39737;43.334;21.936;2022-11-15T14:30:57;98.55;;;49.85;;
53835;SDS011;39737;43.334;21.936;2022-11-15T14:33:43;89.65;;;44.63;;
53835;SDS011;39737;43.334;21.936;2022-11-15T14:36:30;101.70;;;48.83;;
53835;SDS011;39737;43.334;21.936;2022-11-15T14:39:16;114.60;;;50.42;;
53835;SDS011;39737;43.334;21.936;2022-11-15T14:42:03;101.65;;;48.35;;
53835;SDS011;39737;43.334;21.936;2022-11-15T14:44:49;141.65;;;63.13;;
53835;SDS011;39737;43.334;21.936;2022-11-15T14:47:36;136.57;;;59.08;;
53835;SDS011;39737;43.334;21.936;2022-11-15T14:50:22;132.77;;;60.17;;
53835;SDS011;39737;43.334;21.936;2022-11-15T14:53:12;127.93;;;55.35;;
53835;SDS011;39737;43.334;21.936;2022-11-15T14:55:59;115.28;;;52.22;;
53835;SDS011;39737;43.334;21.936;2022-11-15T14:58:45;128.80;;;56.30;;
53835;SDS011;39737;43.334;21.936;2022-11-15T15:01:32;138.82;;;59.33;;
53835;SDS011;39737;43.334;21.936;2022-11-15T15:04:18;150.98;;;65.00;;
53835;SDS011;39737;43.334;21.936;2022-11-15T15:07:04;165.05;;;70.43;;
53835;SDS011;39737;43.334;21.936;2022-11-15T15:09:51;187.20;;;79.70;;
53835;SDS011;39737;43.334;21.936;2022-11-15T15:12:37;231.82;;;93.45;;
53835;SDS011;39737;43.334;21.936;2022-11-15T15:15:24;220.90;;;96.25;;
53835;SDS011;39737;43.334;21.936;2022-11-15T15:18:13;259.02;;;112.40;;
53835;SDS011;39737;43.334;21.936;2022-11-15T15:20:59;250.88;;;109.70;;
53835;SDS011;39737;43.334;21.936;2022-11-15T15:23:56;199.88;;;87.25;;
53835;SDS011;39737;43.334;21.936;2022-11-15T15:26:42;227.07;;;114.13;;
53835;SDS011;39737;43.334;21.936;2022-11-15T15:29:29;239.38;;;111.65;;
53835;SDS011;39737;43.334;21.936;2022-11-15T15:32:16;190.50;;;96.20;;
53835;SDS011;39737;43.334;21.936;2022-11-15T15:35:07;276.85;;;125.00;;
53835;SDS011;39737;43.334;21.936;2022-11-15T15:37:56;230.93;;;109.95;;
53835;SDS011;39737;43.334;21.936;2022-11-15T15:40:42;252.57;;;110.78;;
53835;SDS011;39737;43.334;21.936;2022-11-15T15:43:30;240.00;;;107.28;;
53835;SDS011;39737;43.334;21.936;2022-11-15T15:46:17;254.85;;;107.43;;
53835;SDS011;39737;43.334;21.936;2022-11-15T15:49:08;289.05;;;103.47;;
53835;SDS011;39737;43.334;21.936;2022-11-15T15:51:55;182.07;;;78.63;;
53835;SDS011;39737;43.334;21.936;2022-11-15T15:54:41;161.18;;;68.90;;
53835;SDS011;39737;43.334;21.936;2022-11-15T15:57:27;182.55;;;77.72;;
53835;SDS011;39737;43.334;21.936;2022-11-15T16:00:14;166.25;;;67.43;;
53835;SDS011;39737;43.334;21.936;2022-11-15T16:03:02;153.10;;;69.50;;
53835;SDS011;39737;43.334;21.936;2022-11-15T16:05:49;152.73;;;66.15;;
53835;SDS011;39737;43.334;21.936;2022-11-15T16:08:35;107.95;;;50.08;;
53835;SDS011;39737;43.334;21.936;2022-11-15T16:11:45;78.53;;;38.63;;
53835;SDS011;39737;43.334;21.936;2022-11-15T16:14:32;80.47;;;38.60;;
53835;SDS011;39737;43.334;21.936;2022-11-15T16:17:19;100.13;;;40.72;;
53835;SDS011;39737;43.334;21.936;2022-11-15T16:20:44;82.57;;;34.25;;
53835;SDS011;39737;43.334;21.936;2022-11-15T16:23:22;66.85;;;32.90;;
53835;SDS011;39737;43.334;21.936;2022-11-15T16:26:27;28.58;;;14.80;;
53835;SDS011;39737;43.334;21.936;2022-11-15T16:29:13;86.00;;;34.78;;
53835;SDS011;39737;43.334;21.936;2022-11-15T16:32:00;72.00;;;33.92;;
53835;SDS011;39737;43.334;21.936;2022-11-15T16:34:46;73.47;;;35.45;;
53835;SDS011;39737;43.334;21.936;2022-11-15T16:37:37;48.75;;;21.52;;
53835;SDS011;39737;43.334;21.936;2022-11-15T16:40:31;44.80;;;22.73;;
53835;SDS011;39737;43.334;21.936;2022-11-15T16:43:20;85.88;;;40.92;;
53835;SDS011;39737;43.334;21.936;2022-11-15T16:46:24;82.30;;;46.08;;
53835;SDS011;39737;43.334;21.936;2022-11-15T16:49:13;93.15;;;42.13;;
53835;SDS011;39737;43.334;21.936;2022-11-15T16:52:10;92.03;;;45.85;;
53835;SDS011;39737;43.334;21.936;2022-11-15T16:54:57;164.82;;;79.18;;
53835;SDS011;39737;43.334;21.936;2022-11-15T16:58:00;178.30;;;74.88;;
53835;SDS011;39737;43.334;21.936;2022-11-15T17:01:10;112.72;;;45.75;;
53835;SDS011;39737;43.334;21.936;2022-11-15T17:04:02;104.18;;;42.30;;
53835;SDS011;39737;43.334;21.936;2022-11-15T17:06:58;109.38;;;42.97;;
53835;SDS011;39737;43.334;21.936;2022-11-15T17:09:44;80.60;;;37.17;;
53835;SDS011;39737;43.334;21.936;2022-11-15T17:12:32;67.60;;;34.58;;
53835;SDS011;39737;43.334;21.936;2022-11-15T17:15:18;40.05;;;19.30;;
53835;SDS011;39737;43.334;21.936;2022-11-15T17:18:05;46.85;;;19.08;;
53835;SDS011;39737;43.334;21.936;2022-11-15T17:20:52;73.55;;;33.53;;
53835;SDS011;39737;43.334;21.936;2022-11-15T17:23:38;69.70;;;33.75;;
53835;SDS011;39737;43.334;21.936;2022-11-15T17:26:25;27.75;;;17.17;;
53835;SDS011;39737;43.334;21.936;2022-11-15T17:29:29;34.97;;;16.00;;
53835;SDS011;39737;43.334;21.936;2022-11-15T17:33:35;73.43;;;37.38;;
53835;SDS011;39737;43.334;21.936;2022-11-15T17:36:24;30.88;;;13.85;;
53835;SDS011;39737;43.334;21.936;2022-11-15T17:39:13;88.43;;;43.88;;
53835;SDS011;39737;43.334;21.936;2022-11-15T17:42:00;47.65;;;18.55;;
53835;SDS011;39737;43.334;21.936;2022-11-15T17:44:54;77.20;;;36.58;;
53835;SDS011;39737;43.334;21.936;2022-11-15T17:48:13;74.75;;;35.42;;
53835;SDS011;39737;43.334;21.936;2022-11-15T17:51:15;81.93;;;39.10;;
53835;SDS011;39737;43.334;21.936;2022-11-15T17:54:34;38.10;;;19.77;;
53835;SDS011;39737;43.334;21.936;2022-11-15T17:57:36;48.28;;;19.40;;
53835;SDS011;39737;43.334;21.936;2022-11-15T18:00:25;57.85;;;27.42;;
53835;SDS011;39737;43.334;21.936;2022-11-15T18:06:38;101.72;;;47.33;;
53835;SDS011;39737;43.334;21.936;2022-11-15T18:09:28;67.18;;;33.60;;
53835;SDS011;39737;43.334;21.936;2022-11-15T18:12:14;108.28;;;46.78;;
53835;SDS011;39737;43.334;21.936;2022-11-15T18:15:02;82.65;;;37.40;;
53835;SDS011;39737;43.334;21.936;2022-11-15T18:17:48;64.53;;;30.25;;
53835;SDS011;39737;43.334;21.936;2022-11-15T18:20:35;82.38;;;31.98;;
53835;SDS011;39737;43.334;21.936;2022-11-15T18:23:21;70.80;;;28.38;;
53835;SDS011;39737;43.334;21.936;2022-11-15T18:26:12;43.53;;;23.55;;
53835;SDS011;39737;43.334;21.936;2022-11-15T18:29:03;42.58;;;19.35;;
53835;SDS011;39737;43.334;21.936;2022-11-15T18:31:50;76.15;;;32.33;;
53835;SDS011;39737;43.334;21.936;2022-11-15T18:34:40;31.95;;;14.35;;
53835;SDS011;39737;43.334;21.936;2022-11-15T18:37:27;145.52;;;59.30;;
53835;SDS011;39737;43.334;21.936;2022-11-15T18:40:13;261.88;;;111.03;;
53835;SDS011;39737;43.334;21.936;2022-11-15T18:43:01;108.35;;;47.80;;
53835;SDS011;39737;43.334;21.936;2022-11-15T18:45:48;41.17;;;20.42;;
53835;SDS011;39737;43.334;21.936;2022-11-15T18:48:41;99.57;;;50.25;;
53835;SDS011;39737;43.334;21.936;2022-11-15T18:51:29;71.97;;;30.38;;
53835;SDS011;39737;43.334;21.936;2022-11-15T18:54:16;145.57;;;66.75;;
53835;SDS011;39737;43.334;21.936;2022-11-15T18:57:07;75.68;;;30.83;;
53835;SDS011;39737;43.334;21.936;2022-11-15T18:59:56;67.00;;;30.63;;
53835;SDS011;39737;43.334;21.936;2022-11-15T19:02:43;134.30;;;57.22;;
53835;SDS011;39737;43.334;21.936;2022-11-15T19:05:29;71.63;;;33.80;;
53835;SDS011;39737;43.334;21.936;2022-11-15T19:08:15;69.72;;;23.80;;
53835;SDS011;39737;43.334;21.936;2022-11-15T19:11:18;32.17;;;15.82;;